Latest Weather Observations for Pearce

IDW60801

Issued at 10:34 pm WST Monday 5 December 2016 (issued every 30 minutes, with the page automatically refreshed every 10 minutes)

About weather observations | Map of weather stations | Latest weather observations for WA | Other Formats
Station Details ID: 009053 Name: PEARCE RAAF Lat: -31.67 Lon: 116.02 Height: 40.0 m
Data from the previous 72 hours. | See also: Recent months at Pearce
Date/Time
WST
Temp
°C
App
Temp
°C
Dew
Point
°C
Rel
Hum
%
Delta-T
°C
Wind Press
QNH
hPa
Press
MSL
hPa
Rain since
9am
mm
Dir  Spd
km/h
Gust
km/h
Spd
kts
Gust
kts
05/10:30pm 15.9 14.0 11.9 77 2.2 S 13 17 7 9 1016.5 1016.3 0.0
05/10:00pm 16.4 13.4 11.8 74 2.5 SSW 19 24 10 13 1016.6 1016.4 0.0
05/09:30pm 16.6 13.9 11.7 73 2.7 S 17 20 9 11 1016.6 1016.4 0.0
05/09:00pm 17.2 14.1 11.5 69 3.1 SSW 19 24 10 13 1016.4 1016.2 0.0
05/08:30pm 17.2 14.0 11.2 68 3.2 SSW 19 24 10 13 1016.1 1015.9 0.0
05/08:00pm 17.7 14.3 11.3 66 3.5 SSW 20 30 11 16 1016.0 1015.8 0.0
05/07:30pm 18.2 14.1 11.3 64 3.8 SSW 24 33 13 18 1015.9 1015.7 0.0
05/07:00pm 18.8 13.8 10.9 60 4.3 SSW 28 35 15 19 1015.7 1015.5 0.0
05/06:30pm 19.8 15.3 10.2 54 5.2 SSW 24 33 13 18 1015.4 1015.2 0.0
05/06:00pm 20.4 15.6 10.2 52 5.5 SW 26 32 14 17 1014.9 1014.7 0.0
05/05:30pm 21.1 15.5 10.0 49 6.0 SW 30 39 16 21 1014.6 1014.4 0.0
05/05:00pm 21.6 16.3 9.8 47 6.4 SSW 28 39 15 21 1014.1 1013.9 0.0
05/04:30pm 22.2 15.8 9.4 44 6.9 SW 33 44 18 24 1013.9 1013.7 0.0
05/04:00pm 22.9 16.8 8.2 39 7.8 SW 30 41 16 22 1013.9 1013.7 0.0
05/03:30pm 23.7 17.6 8.2 37 8.2 SW 30 41 16 22 1013.7 1013.5 0.0
05/03:00pm 23.9 17.4 8.3 37 8.3 SW 32 43 17 23 1013.6 1013.4 0.0
05/02:30pm 23.8 17.0 7.8 36 8.4 SW 33 44 18 24 1013.6 1013.4 0.0
05/02:00pm 24.4 16.9 8.0 35 8.7 WSW 37 48 20 26 1013.4 1013.2 0.0
05/01:30pm 24.8 18.2 7.9 34 9.0 SW 32 46 17 25 1013.3 1013.1 0.0
05/01:18pm 25.2 19.0 7.8 33 9.3 WSW 30 52 16 28 1013.0 1012.8 0.0
05/01:00pm 24.3 19.3 6.6 32 9.2 SSW 22 30 12 16 1013.1 1012.9 0.0
05/12:30pm 23.6 18.6 6.4 33 8.8 SSW 22 33 12 18 1013.2 1013.0 0.0
05/12:00pm 23.3 19.0 7.8 37 8.2 SSW 20 30 11 16 1013.5 1013.3 0.0
05/11:30am 23.2 20.4 8.5 39 7.8 SE 13 24 7 13 1013.8 1013.6 0.0
05/11:00am 23.4 19.3 8.7 39 7.9 SSW 20 32 11 17 1014.0 1013.8 0.0
05/10:30am 22.2 18.1 8.0 40 7.5 S 19 26 10 14 1014.1 1013.9 0.0
05/10:00am 21.3 17.6 7.9 42 7.0 SSE 17 24 9 13 1014.4 1014.2 0.0
05/09:30am 20.6 17.1 8.6 46 6.3 SE 17 24 9 13 1014.7 1014.5 0.0
05/09:00am 19.4 15.4 8.4 49 5.7 SSE 19 26 10 14 1015.0 1014.8 0.0
05/08:30am 18.4 14.4 8.4 52 5.2 SE 19 28 10 15 1015.1 1014.9 0.0
05/08:00am 17.4 13.4 9.1 58 4.3 SSE 20 28 11 15 1015.5 1015.3 0.0
05/07:30am 15.7 11.2 8.4 62 3.7 S 22 30 12 16 1015.6 1015.4 0.0
05/07:00am 14.6 11.2 9.2 70 2.8 SSE 17 22 9 12 1015.5 1015.3 0.0
05/06:30am 12.8 10.6 9.4 80 1.7 SSE 11 13 6 7 1015.4 1015.2 0.0
05/06:00am 10.6 8.5 8.4 86 1.1 S 9 11 5 6 1015.2 1015.0 0.0
05/05:30am 11.0 9.6 8.8 86 1.1 SSE 6 9 3 5 1014.8 1014.6 0.0
05/05:00am 10.3 7.8 8.1 86 1.1 S 11 13 6 7 1014.4 1014.2 0.0
05/04:30am 11.0 8.6 8.6 85 1.2 SE 11 15 6 8 1014.0 1013.8 0.0
05/04:00am 11.0 8.2 8.6 85 1.2 SSE 13 17 7 9 1014.0 1013.8 0.0
05/03:30am 11.6 8.5 8.8 83 1.4 SSE 15 20 8 11 1013.9 1013.7 0.0
05/03:00am 11.8 8.3 8.6 81 1.6 SSE 17 20 9 11 1013.6 1013.4 0.0
05/02:30am 12.5 9.8 9.1 80 1.7 SE 13 19 7 10 1013.4 1013.2 0.0
05/02:00am 12.0 10.0 8.5 79 1.7 S 9 11 5 6 1013.5 1013.3 0.0
05/01:30am 12.1 10.4 8.4 78 1.8 S 7 7 4 4 1013.4 1013.2 0.0
05/01:00am 12.1 11.5 9.1 82 1.5 S 2 6 1 3 1013.3 1013.1 0.0
05/12:30am 12.5 11.0 8.6 77 1.9 S 6 7 3 4 1013.4 1013.2 0.0
05/12:00am 13.7 12.3 9.4 75 2.2 S 7 9 4 5 1013.5 1013.3 0.0
 
Date/Time
WST
Temp
°C
App
Temp
°C
Dew
Point
°C
Rel
Hum
%
Delta-T
°C
Wind Press
QNH
hPa
Press
MSL
hPa
Rain since
9am
mm
Dir  Spd
km/h
Gust
km/h
Spd
kts
Gust
kts
04/11:30pm 13.8 11.9 9.0 73 2.4 S 9 11 5 6 1013.7 1013.5 0.0
04/11:00pm 14.4 12.5 9.2 71 2.7 S 9 11 5 6 1013.8 1013.6 0.0
04/10:30pm 14.4 11.7 9.0 70 2.8 S 13 15 7 8 1014.0 1013.8 0.0
04/10:00pm 15.1 12.5 9.2 68 3.0 S 13 19 7 10 1014.2 1014.0 0.0
04/09:30pm 16.1 12.4 9.3 64 3.5 SSW 19 28 10 15 1014.3 1014.1 0.0
04/09:00pm 16.3 12.6 9.5 64 3.5 SSW 19 24 10 13 1014.1 1013.9 0.0
04/08:30pm 16.7 12.9 9.9 64 3.6 SSW 20 26 11 14 1013.9 1013.7 0.0
04/08:00pm 16.9 13.7 9.8 63 3.7 SW 17 20 9 11 1013.7 1013.5 0.0
04/07:30pm 17.4 13.5 9.3 59 4.2 SW 20 24 11 13 1013.6 1013.4 0.0
04/07:00pm 18.3 14.2 8.6 53 5.0 SW 20 26 11 14 1013.4 1013.2 0.0
04/06:30pm 19.5 14.1 7.9 47 6.0 SW 26 32 14 17 1013.1 1012.9 0.0
04/06:00pm 20.0 14.2 8.0 46 6.2 SW 28 33 15 18 1012.8 1012.6 0.0
04/05:30pm 19.9 14.5 7.9 46 6.2 SW 26 33 14 18 1012.4 1012.2 0.0
04/05:00pm 22.2 16.9 8.3 41 7.3 SSW 26 33 14 18 1012.2 1012.0 0.0
04/04:30pm 21.9 16.3 7.3 39 7.6 SW 26 35 14 19 1012.1 1011.9 0.0
04/04:00pm 22.5 17.0 7.5 38 7.8 SSW 26 37 14 20 1012.0 1011.8 0.0
04/03:30pm 23.1 16.8 7.6 37 8.1 SW 30 37 16 20 1012.2 1012.0 0.0
04/03:00pm 23.2 16.8 6.9 35 8.4 SW 30 39 16 21 1012.3 1012.1 0.0
04/02:30pm 24.1 17.8 7.3 34 8.8 SW 30 41 16 22 1012.4 1012.2 0.0
04/02:00pm 24.0 20.5 5.4 30 9.4 WSW 13 24 7 13 1012.5 1012.3 0.0
04/01:30pm 25.0 21.2 5.7 29 9.9 WSW 15 24 8 13 1012.8 1012.6 0.0
04/01:00pm 23.7 21.0 5.6 31 9.2 ESE 9 17 5 9 1013.1 1012.9 0.0
04/12:30pm 22.2 19.4 5.2 33 8.5 NNW 9 17 5 9 1013.4 1013.2 0.0
04/12:00pm 22.6 18.7 5.5 33 8.6 SE 15 22 8 12 1013.7 1013.5 0.0
04/11:30am 21.5 18.8 5.4 35 8.0 E 9 17 5 9 1014.0 1013.8 0.0
04/11:00am 20.6 15.7 4.2 34 7.9 S 19 28 10 15 1014.4 1014.2 0.0
04/10:30am 20.0 16.6 6.0 40 7.0 S 13 22 7 12 1014.7 1014.5 0.0
04/10:00am 20.1 17.1 6.1 40 7.0 SSE 11 19 6 10 1015.0 1014.8 0.0
04/09:30am 19.4 16.4 6.2 42 6.6 SE 11 17 6 9 1015.1 1014.9 0.0
04/09:00am 18.1 14.9 5.3 43 6.2 S 11 22 6 12 1015.2 1015.0 0.4
04/08:30am 17.7 13.9 5.6 45 5.9 SSE 15 22 8 12 1015.3 1015.1 0.4
04/08:00am 17.2 12.8 7.3 52 5.0 SSE 20 28 11 15 1015.2 1015.0 0.4
04/07:30am 15.8 10.7 7.8 59 4.0 S 24 35 13 19 1015.0 1014.8 0.4
04/07:00am 15.9 12.7 9.8 67 3.2 SSE 17 24 9 13 1014.8 1014.6 0.4
04/06:30am 15.3 12.2 10.3 72 2.6 SSE 17 24 9 13 1014.3 1014.1 0.4
04/06:00am 14.5 13.3 11.7 83 1.5 SSE 9 13 5 7 1014.0 1013.8 0.4
04/05:30am 13.4 12.7 12.0 91 0.8 SSE 7 9 4 5 1013.7 1013.5 0.4
04/05:00am 13.5 12.7 11.7 89 1.0 S 7 9 4 5 1013.4 1013.2 0.4
04/04:30am 13.5 11.9 11.6 88 1.0 S 11 13 6 7 1012.9 1012.7 0.4
04/04:00am 13.8 12.3 11.8 88 1.1 S 11 13 6 7 1012.1 1011.9 0.4
04/03:30am 14.6 13.3 12.5 87 1.1 S 11 13 6 7 1011.9 1011.7 0.4
04/03:00am 16.0 14.5 13.1 83 1.6 S 13 17 7 9 1011.7 1011.5 0.4
04/02:30am 16.0 13.7 13.1 83 1.6 S 17 20 9 11 1011.4 1011.2 0.4
04/02:00am 16.2 14.2 14.0 87 1.3 S 17 22 9 12 1011.2 1011.0 0.4
04/01:30am 15.7 15.2 13.9 89 1.0 S 9 13 5 7 1011.0 1010.8 0.4
04/01:00am 15.8 16.4 14.2 90 0.9 S 4 11 2 6 1011.0 1010.8 0.4
04/12:30am 16.1 17.2 14.5 90 0.9 S 2 7 1 4 1011.2 1011.0 0.4
04/12:00am 16.2 16.4 14.2 88 1.1 S 6 7 3 4 1011.1 1010.9 0.4
 
Date/Time
WST
Temp
°C
App
Temp
°C
Dew
Point
°C
Rel
Hum
%
Delta-T
°C
Wind Press
QNH
hPa
Press
MSL
hPa
Rain since
9am
mm
Dir  Spd
km/h
Gust
km/h
Spd
kts
Gust
kts
03/11:30pm 16.2 15.4 14.0 87 1.2 SW 11 13 6 7 1011.0 1010.8 0.4
03/11:00pm 16.8 15.4 14.4 86 1.4 SW 15 17 8 9 1011.2 1011.0 0.4
03/10:30pm 17.2 16.6 14.7 85 1.4 SW 11 15 6 8 1011.1 1010.9 0.4
03/10:00pm 17.7 16.5 15.0 84 1.6 SW 15 17 8 9 1011.1 1010.9 0.4
03/09:30pm 18.2 18.0 15.8 86 1.4 SW 11 15 6 8 1011.1 1010.9 0.4
03/09:00pm 18.4 19.2 16.4 88 1.2 SW 7 9 4 5 1011.1 1010.9 0.4
03/08:30pm 18.3 19.4 16.6 90 1.0 SW 6 9 3 5 1010.9 1010.7 0.4
03/08:00pm 18.1 18.6 16.6 91 0.9 SW 9 13 5 7 1010.6 1010.4 0.4
03/07:30pm 17.8 17.4 16.3 91 0.9 SW 13 19 7 10 1010.4 1010.1 0.4
03/07:04pm 18.0 16.6 16.5 91 0.9 WSW 19 28 10 15 1010.3 1010.0 0.4
03/07:00pm 18.2 16.7 16.7 91 0.9 WSW 20 28 11 15 1010.3 1010.0 0.4
03/06:43pm 18.5 15.8 15.6 83 1.7 WSW 24 43 13 23 1010.1 1009.8 0.0
03/06:30pm 20.3 18.3 14.9 71 3.2 WSW 19 24 10 13 1009.8 1009.5 0.0
03/06:00pm 21.0 18.2 14.2 65 4.0 WSW 22 33 12 18 1009.5 1009.2 0.0
03/05:30pm 21.4 17.8 14.1 63 4.3 WSW 26 37 14 20 1009.2 1008.9 0.0
03/05:00pm 21.1 18.9 15.9 72 3.1 W 22 39 12 21 1009.0 1008.7 0.0
03/04:53pm 21.2 20.5 17.4 79 2.3 W 17 22 9 12 1009.0 1008.7 0.0
03/04:35pm 18.6 14.5 16.4 87 1.3 SW 33 46 18 25 1009.2 1008.9 0.0
03/04:30pm 19.4 14.9 14.9 75 2.6 SW 32 46 17 25 1009.0 1008.7 0.0
03/04:00pm 22.1 17.4 13.2 57 5.1 WSW 30 39 16 21 1008.8 1008.5 0.0
03/03:30pm 22.9 18.7 13.4 55 5.5 W 28 39 15 21 1008.8 1008.5 0.0
03/03:00pm 23.7 19.2 12.7 50 6.3 SW 28 44 15 24 1008.7 1008.4 0.0
03/02:30pm 23.1 18.5 12.4 51 6.1 WSW 28 43 15 23 1008.8 1008.5 0.0
03/02:13pm 23.1 18.2 12.7 52 6.0 WSW 30 48 16 26 1008.9 1008.6 0.0
03/02:00pm 23.8 18.7 13.1 51 6.2 WSW 32 44 17 24 1008.8 1008.5 0.0
03/01:30pm 23.8 18.8 12.1 48 6.7 SW 30 39 16 21 1008.9 1008.6 0.0
03/01:00pm 24.5 19.7 12.8 48 6.8 WSW 30 43 16 23 1008.8 1008.5 0.0
03/12:30pm 24.1 19.4 12.1 47 6.8 SW 28 41 15 22 1008.8 1008.5 0.0
03/12:00pm 23.9 18.8 11.9 47 6.8 WSW 30 41 16 22 1008.9 1008.6 0.0
03/11:46am 22.9 17.7 10.3 45 6.9 SW 28 46 15 25 1009.0 1008.7 0.0
03/11:30am 23.8 18.9 11.2 45 7.1 SW 28 43 15 23 1009.0 1008.7 0.0
03/11:00am 23.1 18.7 10.5 45 7.0 SW 24 33 13 18 1009.2 1008.9 0.0
03/10:30am 22.7 18.1 9.5 43 7.1 WSW 24 33 13 18 1009.2 1008.9 0.0
03/10:00am 21.9 17.3 9.8 46 6.6 WSW 24 37 13 20 1009.2 1008.9 0.0
03/09:30am 21.4 16.8 11.1 52 5.7 WSW 26 37 14 20 1009.1 1008.8 0.0
03/09:00am 20.8 17.3 10.9 53 5.4 SW 20 32 11 17 1009.1 1008.8 0.0
03/08:30am 19.6 16.4 11.9 61 4.3 WSW 20 26 11 14 1009.2 1008.9 0.0
03/08:00am 19.0 15.6 11.1 60 4.3 SSW 20 30 11 16 1009.0 1008.7 0.0
03/07:30am 18.3 15.8 12.3 68 3.3 SSW 17 24 9 13 1009.1 1008.8 0.0
03/07:00am 17.2 16.4 12.9 76 2.4 WSW 9 15 5 8 1008.9 1008.6 0.0
03/06:30am 15.4 15.6 13.2 87 1.2 W 4 7 2 4 1008.7 1008.4 0.0
03/06:00am 13.9 13.5 12.3 90 0.9 W 6 7 3 4 1008.6 1008.3 0.0
03/05:30am 13.7 13.1 12.4 92 0.7 W 7 9 4 5 1008.0 1007.8 0.0
03/05:00am 12.6 11.6 11.0 90 0.8 W 7 9 4 5 1007.7 1007.5 0.0
03/04:30am 13.1 12.3 11.2 88 1.0 W 6 7 3 4 1007.5 1007.3 0.0
03/04:00am 13.8 13.6 11.7 87 1.1 W 4 7 2 4 1007.4 1007.2 0.0
03/03:30am 14.7 14.4 13.2 91 0.8 W 7 9 4 5 1007.3 1007.1 0.0
03/03:00am 12.4 11.2 10.3 87 1.1 W 7 9 4 5 1007.4 1007.2 0.0
03/02:30am 14.0 13.5 12.6 91 0.8 W 7 9 4 5 1007.3 1007.1 0.0
03/02:00am 12.9 11.9 11.0 88 1.0 W 7 9 4 5 1007.5 1007.3 0.0
03/01:30am 14.6 14.1 12.8 89 1.0 W 7 9 4 5 1007.6 1007.4 0.0
03/01:00am 14.2 13.6 12.4 89 1.0 W 7 9 4 5 1007.9 1007.7 0.0
03/12:30am 13.3 12.2 10.7 84 1.4 W 7 9 4 5 1008.2 1008.0 0.0
03/12:00am 15.1 15.9 12.4 84 1.5 CALM 0 0 0 0 1008.3 1008.1 0.0
 
Date/Time
WST
Temp
°C
App
Temp
°C
Dew
Point
°C
Rel
Hum
%
Delta-T
°C
Wind Press
QNH
hPa
Press
MSL
hPa
Rain since
9am
mm
Dir  Spd
km/h
Gust
km/h
Spd
kts
Gust
kts
02/11:30pm 14.7 15.3 11.8 83 1.6 CALM 0 0 0 0 1008.7 1008.4 0.0
02/11:00pm 14.5 13.7 11.1 80 1.8 W 6 7 3 4 1008.9 1008.6 0.0

Other Formats:

Comma delimited format used in spreadsheet applications
http://www.bom.gov.au/fwo/IDW60801/IDW60801.94612.axf

JavaScript Object Notation format (JSON) in row-major order
http://www.bom.gov.au/fwo/IDW60801/IDW60801.94612.json